Terminal Aerodrome Forecast
Issued by NWS Wilmington, NC

Home | Current Version | Previous Version | Text Only | Print | Product List | Glossary On
Versions: 1 2 3 4 5 6 7 8 9 10 11 12 13 14 15 16 17 18 19 20
356
FTUS42 KILM 262320
TAFFLO
TAF
KFLO 262320Z 2700/2724 17007KT P6SM BKN050
      TEMPO 2704/2708 5SM -RA
     FM270800 21004KT 6SM BR VCSH SCT010 BKN025
     FM271300 24008KT P6SM SCT015 SCT070=

USA.gov is the U.S. government's official web portal to all federal, state and local government web resources and services.